createdAt,value
2023-04-10T00:01:19.865Z,68.50
2023-04-10T00:03:48.136Z,69.20
2023-04-10T00:06:16.290Z,69.75
2023-04-10T00:08:44.311Z,70.45
2023-04-10T00:11:12.285Z,70.78
2023-04-10T00:13:43.408Z,71.07
2023-04-10T00:16:11.059Z,71.06
2023-04-10T00:18:39.057Z,71.79
2023-04-10T00:21:08.508Z,72.21
2023-04-10T00:23:36.377Z,71.85
2023-04-10T00:26:04.351Z,71.17
2023-04-10T00:28:32.536Z,71.06
2023-04-10T00:31:00.583Z,71.29
2023-04-10T00:33:28.435Z,70.60
2023-04-10T00:35:56.374Z,70.02
2023-04-10T00:38:23.934Z,69.95
2023-04-10T00:40:51.694Z,68.80
2023-04-10T00:43:20.403Z,68.85
2023-04-10T00:45:49.899Z,68.45
2023-04-10T00:48:18.259Z,68.21
2023-04-10T00:50:47.539Z,68.79
2023-04-10T00:53:15.687Z,68.19
2023-04-10T00:55:42.993Z,68.40
2023-04-10T00:58:14.852Z,68.13
2023-04-10T01:00:42.612Z,68.46
2023-04-10T01:03:10.396Z,68.35
2023-04-10T01:05:45.034Z,68.36
2023-04-10T01:08:18.674Z,67.68
2023-04-10T01:10:48.984Z,67.51
2023-04-10T01:13:36.655Z,67.62
2023-04-10T01:16:11.489Z,67.23
2023-04-10T01:18:44.768Z,67.56
2023-04-10T01:21:12.698Z,68.46
2023-04-10T01:24:10.097Z,67.89
2023-04-10T01:27:17.865Z,68.25
2023-04-10T01:29:47.283Z,68.47
2023-04-10T01:32:21.732Z,68.38
2023-04-10T01:34:52.495Z,67.83
2023-04-10T01:37:28.725Z,67.46
2023-04-10T01:40:02.784Z,67.52
2023-04-10T01:42:40.326Z,67.32
2023-04-10T01:45:08.449Z,67.12
2023-04-10T01:47:36.943Z,66.36
2023-04-10T01:50:06.560Z,66.49
2023-04-10T01:52:34.112Z,65.54
2023-04-10T01:55:02.117Z,66.09
2023-04-10T01:57:31.741Z,65.82
2023-04-10T01:59:59.962Z,65.73
2023-04-10T02:02:31.449Z,65.69
2023-04-10T02:04:59.664Z,65.38
2023-04-10T02:07:51.337Z,65.56
2023-04-10T02:10:21.462Z,64.72
2023-04-10T02:13:20.945Z,65.17
2023-04-10T02:15:48.952Z,65.12
2023-04-10T02:18:17.532Z,64.56
2023-04-10T02:20:44.918Z,64.24
2023-04-10T02:23:12.697Z,64.26
2023-04-10T02:25:40.272Z,65.00
2023-04-10T02:28:08.531Z,64.64
2023-04-10T02:30:36.824Z,64.68
2023-04-10T02:33:05.586Z,65.27
2023-04-10T02:35:34.419Z,64.71
2023-04-10T02:38:01.936Z,65.18
2023-04-10T02:40:29.572Z,65.19
2023-04-10T02:42:57.448Z,65.14
2023-04-10T02:45:25.509Z,65.44
2023-04-10T02:47:53.430Z,64.76
2023-04-10T02:50:20.986Z,66.12
2023-04-10T02:52:48.516Z,66.45
2023-04-10T02:55:16.629Z,66.48
2023-04-10T02:57:44.475Z,65.93
2023-04-10T03:00:15.269Z,66.40
2023-04-10T03:02:43.354Z,66.83
2023-04-10T03:05:11.712Z,66.77
2023-04-10T03:07:39.590Z,67.14
2023-04-10T03:10:10.429Z,67.38
2023-04-10T03:12:38.287Z,67.30
2023-04-10T03:15:08.989Z,67.43
2023-04-10T03:17:37.413Z,67.82
2023-04-10T03:20:06.453Z,68.73
2023-04-10T03:22:35.769Z,68.87
2023-04-10T03:25:03.494Z,69.06
2023-04-10T03:27:32.318Z,69.61
2023-04-10T03:30:00.375Z,69.77
2023-04-10T03:32:28.390Z,69.88
2023-04-10T03:34:56.061Z,70.26
2023-04-10T03:37:24.242Z,70.91
2023-04-10T03:39:52.259Z,71.09
2023-04-10T03:42:19.902Z,71.71
2023-04-10T03:44:47.763Z,71.99
2023-04-10T03:47:16.049Z,72.16
2023-04-10T03:49:43.938Z,72.10
2023-04-10T03:52:11.977Z,72.35
2023-04-10T03:54:40.218Z,72.05
2023-04-10T03:57:08.388Z,71.43
2023-04-10T03:59:38.793Z,71.32
2023-04-10T04:02:08.209Z,71.25
2023-04-10T04:04:36.373Z,71.87
2023-04-10T04:07:04.711Z,72.70
2023-04-10T04:09:32.763Z,73.49
2023-04-10T04:12:00.700Z,73.19
2023-04-10T04:14:28.694Z,73.20
2023-04-10T04:16:56.969Z,73.75
2023-04-10T04:19:24.816Z,74.79
2023-04-10T04:21:53.098Z,74.79
2023-04-10T04:24:21.931Z,75.00
2023-04-10T04:26:49.493Z,75.25
2023-04-10T04:29:17.767Z,75.44
2023-04-10T04:31:45.439Z,75.29
2023-04-10T04:34:13.070Z,75.82
2023-04-10T04:36:40.852Z,75.46
2023-04-10T04:39:08.750Z,74.77
2023-04-10T04:41:36.300Z,74.84
2023-04-10T04:44:04.531Z,75.15
2023-04-10T04:46:32.478Z,74.98
2023-04-10T04:49:00.546Z,74.82
2023-04-10T04:51:28.629Z,74.76
2023-04-10T04:54:00.262Z,75.20
2023-04-10T04:56:28.387Z,74.95
2023-04-10T04:58:56.569Z,74.61
2023-04-10T05:01:24.627Z,74.73
2023-04-10T05:03:52.851Z,74.33
2023-04-10T05:06:21.724Z,73.84
2023-04-10T05:08:49.859Z,73.91
2023-04-10T05:11:17.461Z,73.29
2023-04-10T05:13:45.175Z,74.27
2023-04-10T05:16:13.083Z,73.69
2023-04-10T05:18:41.628Z,73.49
2023-04-10T05:21:09.762Z,73.36
2023-04-10T05:23:37.897Z,73.28
2023-04-10T05:26:06.447Z,72.77
2023-04-10T05:28:34.416Z,71.96
2023-04-10T05:31:02.507Z,72.06
2023-04-10T05:33:30.037Z,71.79
2023-04-10T05:35:57.941Z,70.95
2023-04-10T05:38:25.572Z,70.62
2023-04-10T05:40:53.508Z,70.47
2023-04-10T05:43:22.078Z,70.26
2023-04-10T05:45:50.285Z,70.25
2023-04-10T05:48:19.270Z,69.49
2023-04-10T05:50:48.057Z,69.27
2023-04-10T05:53:15.667Z,68.43
2023-04-10T05:55:43.643Z,67.90
2023-04-10T05:58:14.282Z,67.63
2023-04-10T06:00:42.562Z,66.48
2023-04-10T06:03:10.189Z,67.00
2023-04-10T06:05:38.424Z,66.43
2023-04-10T06:08:06.569Z,66.10
2023-04-10T06:10:34.619Z,65.85
2023-04-10T06:13:02.636Z,66.26
2023-04-10T06:15:30.380Z,66.01
2023-04-10T06:17:58.018Z,65.60
2023-04-10T06:20:26.050Z,65.52
2023-04-10T06:22:54.676Z,65.46
2023-04-10T06:25:25.595Z,65.81
2023-04-10T06:27:53.282Z,64.90
2023-04-10T06:30:21.645Z,64.56
2023-04-10T06:32:49.260Z,64.95
2023-04-10T06:35:17.084Z,63.62
2023-04-10T06:37:45.124Z,62.43
2023-04-10T06:40:14.179Z,62.35
2023-04-10T06:42:41.901Z,61.52
2023-04-10T06:45:11.098Z,61.84
2023-04-10T06:47:39.053Z,61.47
2023-04-10T06:50:08.403Z,60.47
2023-04-10T06:52:36.366Z,60.52
2023-04-10T06:55:05.586Z,60.04
2023-04-10T06:57:33.768Z,60.58
2023-04-10T07:00:01.789Z,59.61
2023-04-10T07:02:29.609Z,58.87
2023-04-10T07:04:57.091Z,59.25
2023-04-10T07:07:24.832Z,59.07
2023-04-10T07:09:52.340Z,57.26
2023-04-10T07:12:20.406Z,57.32
2023-04-10T07:14:48.388Z,57.28
2023-04-10T07:17:16.089Z,56.60
2023-04-10T07:19:44.625Z,55.88
2023-04-10T07:22:12.604Z,55.59
2023-04-10T07:24:40.281Z,55.19
2023-04-10T07:27:08.363Z,54.29
2023-04-10T07:29:35.977Z,52.96
2023-04-10T07:32:04.290Z,52.11
2023-04-10T07:34:31.867Z,52.15
2023-04-10T07:36:59.876Z,51.82
2023-04-10T07:39:27.717Z,51.92
2023-04-10T07:41:55.637Z,52.37
2023-04-10T07:44:23.195Z,51.63
2023-04-10T07:47:01.479Z,50.71
2023-04-10T07:49:29.325Z,50.12
2023-04-10T07:51:57.026Z,49.09
2023-04-10T07:54:24.759Z,48.23
2023-04-10T07:56:55.205Z,47.97
2023-04-10T07:59:23.328Z,48.33
2023-04-10T08:01:51.533Z,47.63
2023-04-10T08:04:19.908Z,47.84
2023-04-10T08:06:48.067Z,48.87
2023-04-10T08:09:15.708Z,47.69
2023-04-10T08:11:43.920Z,47.26
2023-04-10T08:14:13.531Z,47.87
2023-04-10T08:16:46.592Z,47.12
2023-04-10T08:19:14.456Z,46.85
2023-04-10T08:21:42.310Z,45.85
2023-04-10T08:24:09.944Z,46.49
2023-04-10T08:26:37.778Z,45.87
2023-04-10T08:29:05.635Z,45.88
2023-04-10T08:31:34.146Z,45.68
2023-04-10T08:34:02.084Z,45.57
2023-04-10T08:36:29.973Z,43.55
2023-04-10T08:38:58.020Z,43.85
2023-04-10T08:41:25.741Z,44.22
2023-04-10T08:43:53.765Z,43.58
2023-04-10T08:46:21.192Z,42.29
2023-04-10T08:49:00.532Z,42.22
2023-04-10T08:51:32.299Z,42.56
2023-04-10T08:54:02.496Z,42.73
2023-04-10T08:56:29.745Z,42.53
2023-04-10T08:58:57.511Z,42.06
2023-04-10T09:01:25.748Z,41.33
2023-04-10T09:03:54.036Z,41.05
2023-04-10T09:06:25.931Z,41.12
2023-04-10T09:08:53.964Z,41.67
2023-04-10T09:11:21.903Z,42.06
2023-04-10T09:13:49.651Z,41.72
2023-04-10T09:16:17.721Z,41.54
2023-04-10T09:18:50.995Z,41.24
2023-04-10T09:21:20.486Z,41.74
2023-04-10T09:23:49.798Z,41.59
2023-04-10T09:26:26.114Z,41.15
2023-04-10T09:29:07.002Z,39.78
2023-04-10T09:31:34.927Z,39.90
2023-04-10T09:34:07.768Z,41.43
2023-04-10T09:36:35.457Z,42.03
2023-04-10T09:39:05.275Z,41.83
2023-04-10T09:41:33.227Z,40.56
2023-04-10T09:44:11.519Z,40.81
2023-04-10T09:46:42.229Z,40.20
2023-04-10T09:49:10.129Z,40.40
2023-04-10T09:51:39.512Z,39.95
2023-04-10T09:54:07.245Z,40.30
2023-04-10T09:56:35.542Z,39.75
2023-04-10T09:59:04.852Z,39.54
2023-04-10T10:01:34.727Z,39.47
2023-04-10T10:04:03.342Z,40.95
2023-04-10T10:06:33.752Z,40.54
2023-04-10T10:09:05.375Z,41.06
2023-04-10T10:11:36.043Z,39.43
2023-04-10T10:14:04.663Z,40.24
2023-04-10T10:16:58.418Z,40.31
2023-04-10T10:19:39.238Z,40.62
2023-04-10T10:22:26.717Z,40.64
2023-04-10T10:24:56.792Z,38.86
2023-04-10T10:27:24.197Z,38.54
2023-04-10T10:29:51.969Z,38.54
2023-04-10T10:32:22.856Z,38.33
2023-04-10T10:34:53.078Z,38.78
2023-04-10T10:37:42.972Z,38.95
2023-04-10T10:40:15.309Z,38.20
2023-04-10T10:42:56.548Z,37.88
2023-04-10T10:45:56.094Z,38.91
2023-04-10T10:48:29.549Z,37.46
2023-04-10T10:50:59.067Z,38.41
2023-04-10T10:53:46.550Z,39.34
2023-04-10T10:56:19.454Z,37.31
2023-04-10T10:58:50.791Z,37.03
2023-04-10T11:01:18.333Z,36.74
2023-04-10T11:03:46.615Z,36.73
2023-04-10T11:06:17.256Z,35.84
2023-04-10T11:08:48.000Z,34.49
2023-04-10T11:11:20.182Z,33.66
2023-04-10T11:13:50.261Z,33.18
2023-04-10T11:16:18.563Z,33.41
2023-04-10T11:18:45.253Z,31.60
2023-04-10T11:21:17.270Z,32.12
2023-04-10T11:23:50.502Z,31.60
2023-04-10T11:26:35.906Z,32.47
2023-04-10T11:29:17.909Z,33.13
2023-04-10T11:31:45.550Z,33.72
2023-04-10T11:34:12.776Z,33.62
2023-04-10T11:36:43.581Z,31.40
2023-04-10T11:39:16.041Z,32.39
2023-04-10T11:41:49.236Z,31.97
2023-04-10T11:44:17.914Z,31.64
2023-04-10T11:46:47.302Z,31.44
2023-04-10T11:49:19.811Z,31.30
2023-04-10T11:51:50.374Z,30.20
2023-04-10T11:54:18.518Z,30.24
2023-04-10T11:56:55.414Z,29.91
2023-04-10T11:59:23.948Z,29.04
2023-04-10T12:01:54.180Z,29.69
2023-04-10T12:04:23.671Z,30.09
2023-04-10T12:06:56.013Z,29.37
2023-04-10T12:09:23.140Z,28.52
2023-04-10T12:12:00.617Z,28.42
2023-04-10T12:14:34.440Z,28.31
2023-04-10T12:17:02.577Z,27.89
2023-04-10T12:19:29.913Z,27.94
2023-04-10T12:21:57.501Z,28.08
2023-04-10T12:24:54.018Z,26.46
2023-04-10T12:27:27.763Z,26.03
2023-04-10T12:29:57.086Z,25.90
2023-04-10T12:32:25.144Z,24.49
2023-04-10T12:34:58.611Z,24.35
2023-04-10T12:37:30.342Z,24.01
2023-04-10T12:40:27.826Z,24.27
2023-04-10T12:42:55.666Z,23.90
2023-04-10T12:45:23.623Z,22.26
2023-04-10T12:47:53.794Z,22.35
2023-04-10T12:50:21.750Z,22.16
2023-04-10T12:53:09.525Z,22.40
2023-04-10T12:55:37.659Z,21.41
2023-04-10T12:58:18.404Z,21.52
2023-04-10T13:00:46.740Z,21.65
2023-04-10T13:03:14.379Z,21.82
2023-04-10T13:05:46.093Z,21.67
2023-04-10T13:08:14.746Z,22.42
2023-04-10T13:10:43.640Z,21.54
2023-04-10T13:13:14.421Z,22.23
2023-04-10T13:15:42.898Z,21.50
2023-04-10T13:18:10.898Z,21.55
2023-04-10T13:20:39.922Z,22.24
2023-04-10T13:23:08.005Z,21.97
2023-04-10T13:25:40.031Z,22.23
2023-04-10T13:28:11.546Z,22.16
2023-04-10T13:30:40.405Z,22.77
2023-04-10T13:33:08.587Z,21.98
2023-04-10T13:35:36.487Z,21.70
2023-04-10T13:38:04.978Z,20.67
2023-04-10T13:40:34.965Z,20.67
2023-04-10T13:43:03.352Z,20.68
2023-04-10T13:45:31.071Z,20.59
2023-04-10T13:47:59.218Z,20.37
2023-04-10T13:50:27.715Z,21.00
2023-04-10T13:52:55.674Z,20.63
2023-04-10T13:55:23.206Z,21.38
2023-04-10T13:57:50.986Z,20.57
2023-04-10T14:00:19.919Z,20.70
2023-04-10T14:02:47.790Z,20.80
2023-04-10T14:05:15.467Z,21.29
2023-04-10T14:07:43.082Z,20.32
2023-04-10T14:10:12.624Z,20.52
2023-04-10T14:12:40.315Z,21.04
2023-04-10T14:15:10.785Z,21.81
2023-04-10T14:17:38.861Z,22.75
2023-04-10T14:20:11.587Z,22.00
2023-04-10T14:22:39.685Z,22.03
2023-04-10T14:25:15.925Z,21.12
2023-04-10T14:27:43.685Z,20.16
2023-04-10T14:30:12.540Z,20.36
2023-04-10T14:32:40.520Z,20.11
2023-04-10T14:35:08.066Z,19.77
2023-04-10T14:37:36.113Z,19.57
2023-04-10T14:40:05.043Z,19.51
2023-04-10T14:42:36.497Z,19.32
2023-04-10T14:45:05.665Z,19.88
2023-04-10T14:47:33.314Z,20.16
2023-04-10T14:50:01.387Z,19.93
2023-04-10T14:52:29.045Z,19.62
2023-04-10T14:54:57.603Z,19.50
2023-04-10T14:57:25.571Z,19.84
2023-04-10T14:59:54.694Z,19.96
2023-04-10T15:02:22.910Z,20.56
2023-04-10T15:04:50.848Z,21.42
2023-04-10T15:07:18.995Z,21.55
2023-04-10T15:09:46.604Z,22.48
2023-04-10T15:12:14.669Z,22.47
2023-04-10T15:14:42.985Z,23.11
2023-04-10T15:17:11.124Z,23.48
2023-04-10T15:19:39.291Z,24.09
2023-04-10T15:22:07.321Z,24.57
2023-04-10T15:24:47.070Z,24.78
2023-04-10T15:27:19.230Z,24.91
2023-04-10T15:29:47.392Z,24.62
2023-04-10T15:32:15.635Z,24.04
2023-04-10T15:34:48.424Z,23.91
2023-04-10T15:37:16.320Z,23.75
2023-04-10T15:39:44.644Z,23.19
2023-04-10T15:42:12.215Z,22.37
2023-04-10T15:44:40.127Z,22.24
2023-04-10T15:47:08.210Z,21.81
2023-04-10T15:49:38.738Z,21.51
2023-04-10T15:52:10.991Z,21.08
2023-04-10T15:54:39.588Z,21.80
2023-04-10T15:57:07.583Z,22.44
2023-04-10T15:59:35.957Z,23.56
2023-04-10T16:02:03.689Z,23.28
2023-04-10T16:04:31.870Z,24.23
2023-04-10T16:06:59.520Z,25.11
2023-04-10T16:09:27.395Z,26.05
2023-04-10T16:11:56.111Z,26.06
2023-04-10T16:14:23.846Z,25.94
2023-04-10T16:16:51.467Z,26.27
2023-04-10T16:19:22.095Z,26.65
2023-04-10T16:21:50.356Z,27.30
2023-04-10T16:24:18.197Z,26.35
2023-04-10T16:26:46.155Z,26.72
2023-04-10T16:29:13.669Z,26.71
2023-04-10T16:31:41.866Z,26.35
2023-04-10T16:34:10.127Z,26.44
2023-04-10T16:36:38.804Z,26.84
2023-04-10T16:39:07.429Z,26.39
2023-04-10T16:41:34.588Z,26.03
2023-04-10T16:44:02.065Z,25.63
2023-04-10T16:46:31.362Z,25.35
2023-04-10T16:48:59.113Z,25.53
2023-04-10T16:51:27.544Z,34.17
2023-04-10T16:53:55.602Z,30.35
2023-04-10T16:56:29.245Z,28.96
2023-04-10T16:58:57.493Z,29.87
2023-04-10T17:01:25.677Z,30.42
2023-04-10T17:03:54.280Z,31.32
2023-04-10T17:06:22.293Z,31.41
2023-04-10T17:08:50.226Z,32.28
2023-04-10T17:11:17.773Z,32.61
2023-04-10T17:13:46.608Z,32.56
2023-04-10T17:16:14.639Z,33.30
2023-04-10T17:18:42.895Z,33.34
2023-04-10T17:21:13.360Z,34.19
2023-04-10T17:23:41.323Z,34.28
2023-04-10T17:26:14.675Z,35.15
2023-04-10T17:28:46.588Z,35.59
2023-04-10T17:31:14.994Z,35.47
2023-04-10T17:33:42.977Z,35.64
2023-04-10T17:36:13.615Z,35.70
2023-04-10T17:38:41.449Z,35.35
2023-04-10T17:41:09.299Z,35.47
2023-04-10T17:43:37.048Z,35.80
2023-04-10T17:46:05.323Z,36.21
2023-04-10T17:48:34.582Z,36.37
2023-04-10T17:51:06.841Z,36.71
2023-04-10T17:53:34.343Z,36.47
2023-04-10T17:56:02.872Z,36.96
2023-04-10T17:58:31.150Z,37.35
2023-04-10T18:00:58.873Z,37.83
2023-04-10T18:03:26.597Z,38.41
2023-04-10T18:05:54.691Z,38.48
2023-04-10T18:08:22.775Z,38.74
2023-04-10T18:10:50.365Z,38.60
2023-04-10T18:13:18.492Z,38.60
2023-04-10T18:15:47.682Z,39.41
2023-04-10T18:18:15.682Z,40.88
2023-04-10T18:20:43.295Z,40.64
2023-04-10T18:23:11.253Z,40.34
2023-04-10T18:25:39.862Z,40.56
2023-04-10T18:30:39.659Z,41.75
2023-04-10T18:33:14.961Z,42.13
2023-04-10T18:35:42.562Z,42.55
2023-04-10T18:38:10.545Z,41.93
2023-04-10T18:40:38.493Z,42.41
2023-04-10T18:43:06.392Z,42.52
2023-04-10T18:45:34.299Z,42.88
2023-04-10T18:48:02.490Z,43.51
2023-04-10T18:50:31.089Z,44.14
2023-04-10T18:52:58.773Z,43.48
2023-04-10T18:55:26.374Z,43.32
2023-04-10T18:57:54.677Z,44.08
2023-04-10T19:00:24.189Z,43.47
2023-04-10T19:02:52.348Z,43.43
2023-04-10T19:05:20.497Z,43.80
2023-04-10T19:08:00.650Z,44.04
2023-04-10T19:10:31.769Z,44.39
2023-04-10T19:12:59.934Z,45.34
2023-04-10T19:15:27.939Z,44.50
2023-04-10T19:17:55.752Z,43.91
2023-04-10T19:20:52.419Z,43.62
2023-04-10T19:23:11.423Z,43.96
2023-04-10T19:25:39.381Z,43.67
2023-04-10T19:28:07.247Z,43.58
2023-04-10T19:30:35.319Z,43.48
2023-04-10T19:33:04.256Z,43.46
2023-04-10T19:35:32.238Z,43.82
2023-04-10T19:37:59.872Z,43.31
2023-04-10T19:40:27.902Z,43.43
2023-04-10T19:42:57.431Z,43.74
2023-04-10T19:45:29.533Z,43.51
2023-04-10T19:47:57.636Z,43.09
2023-04-10T19:50:45.884Z,43.18
2023-04-10T19:53:15.659Z,43.46
2023-04-10T19:55:45.080Z,43.94
2023-04-10T19:58:29.902Z,43.89
2023-04-10T20:01:24.734Z,43.73
2023-04-10T20:03:52.564Z,43.55
2023-04-10T20:06:21.819Z,43.18
2023-04-10T20:08:49.632Z,43.55
2023-04-10T20:11:17.230Z,43.80
2023-04-10T20:13:44.708Z,43.65
2023-04-10T20:16:12.500Z,43.81
2023-04-10T20:18:40.793Z,44.29
2023-04-10T20:21:09.170Z,43.47
2023-04-10T20:23:38.065Z,43.95
2023-04-10T20:26:06.478Z,44.63
2023-04-10T20:28:34.169Z,44.38
2023-04-10T20:31:02.123Z,44.31
2023-04-10T20:33:30.058Z,45.17
2023-04-10T20:35:58.024Z,47.83
2023-04-10T20:38:25.853Z,50.09
2023-04-10T20:40:54.082Z,50.31
2023-04-10T20:43:22.059Z,50.13
2023-04-10T20:45:50.098Z,50.66
2023-04-10T20:48:17.733Z,50.53
2023-04-10T20:50:46.788Z,50.30
2023-04-10T20:53:14.965Z,49.60
2023-04-10T20:55:43.516Z,50.02
2023-04-10T20:58:11.002Z,51.28
2023-04-10T21:00:39.696Z,50.46
2023-04-10T21:03:08.156Z,49.73
2023-04-10T21:05:39.472Z,50.48
2023-04-10T21:08:07.607Z,50.90
2023-04-10T21:10:35.293Z,52.54
2023-04-10T21:13:04.118Z,53.26
2023-04-10T21:15:31.731Z,53.30
2023-04-10T21:17:59.868Z,52.78
2023-04-10T21:20:27.962Z,53.87
2023-04-10T21:22:56.149Z,54.18
2023-04-10T21:25:24.122Z,53.84
2023-04-10T21:27:52.191Z,53.59
2023-04-10T21:30:21.962Z,53.92
2023-04-10T21:32:49.435Z,54.48
2023-04-10T21:35:17.855Z,54.47
2023-04-10T21:37:46.011Z,53.30
2023-04-10T21:40:16.471Z,53.34
2023-04-10T21:42:44.583Z,53.17
2023-04-10T21:45:15.822Z,53.98
2023-04-10T21:47:43.673Z,54.89
2023-04-10T21:50:12.588Z,54.37
2023-04-10T21:52:40.145Z,53.44
2023-04-10T21:55:11.470Z,52.99
2023-04-10T21:57:39.786Z,52.89
2023-04-10T22:00:10.317Z,54.07
2023-04-10T22:02:38.443Z,55.38
2023-04-10T22:05:05.774Z,53.95
2023-04-10T22:07:33.861Z,53.60
2023-04-10T22:10:01.265Z,55.17
2023-04-10T22:12:29.636Z,55.47
2023-04-10T22:14:57.759Z,55.14
2023-04-10T22:17:25.763Z,55.18
2023-04-10T22:19:53.662Z,56.09
2023-04-10T22:22:21.787Z,56.45
2023-04-10T22:24:49.807Z,56.09
2023-04-10T22:27:18.101Z,56.77
2023-04-10T22:29:56.206Z,57.32
2023-04-10T22:32:30.619Z,56.70
2023-04-10T22:35:00.287Z,58.23
2023-04-10T22:37:28.250Z,58.27
2023-04-10T22:39:56.367Z,58.84
2023-04-10T22:42:24.771Z,58.38
2023-04-10T22:44:53.081Z,58.95
2023-04-10T22:47:20.645Z,59.09
2023-04-10T22:49:48.227Z,59.09
2023-04-10T22:52:16.337Z,59.16
2023-04-10T22:54:44.443Z,59.28
2023-04-10T22:57:12.541Z,59.90
2023-04-10T22:59:40.518Z,60.69
2023-04-10T23:02:08.644Z,60.08
2023-04-10T23:04:36.161Z,59.90
2023-04-10T23:07:04.037Z,60.15
2023-04-10T23:09:32.810Z,60.37
2023-04-10T23:12:01.427Z,60.36
2023-04-10T23:14:29.758Z,61.24
2023-04-10T23:16:57.753Z,61.16
2023-04-10T23:19:25.986Z,60.50
2023-04-10T23:21:53.726Z,60.49
2023-04-10T23:24:21.785Z,60.42
2023-04-10T23:26:49.248Z,61.56
2023-04-10T23:29:17.247Z,61.81
2023-04-10T23:31:45.261Z,61.72
2023-04-10T23:34:12.988Z,62.06
2023-04-10T23:36:42.796Z,62.70
2023-04-10T23:39:10.409Z,62.97
2023-04-10T23:41:38.172Z,62.72
2023-04-10T23:44:06.437Z,63.03
2023-04-10T23:46:34.518Z,63.96
2023-04-10T23:49:02.415Z,63.17
2023-04-10T23:51:32.036Z,62.52
2023-04-10T23:53:59.617Z,62.19
2023-04-10T23:56:29.382Z,63.27
2023-04-10T23:58:56.995Z,64.29
